Millheim, Texas
Current Conditions -  °F | °C
As of 11:35 PM on Wednesday 22 Oct 2014 (Local Time) from KELA Reporting Station
Clear Clear  
Wind Chill: 64°   Ceiling: Unl
Heat Index: 64°   Visibility: 10mi
Dew Point: 59°   Wind: 0mph
Humidity: 84%   Direction: NA
Pressure: 30.08"   Gusts: NA
Location:  29.7835°N, 96.2064°W
Report Text: KELA 230435Z AUTO 00000KT 10SM CLR 18/15 A3008 RMK AO2 T01780150
Loading
Personal Weather Stations






























Interactive Weather Map
Tropical Storm Tracking
New forecast layout! Learn more

10-Day Weather Forecast

Advertisements
Track Severe Weather on mobile